Brookville, Pennsylvania
Current Conditions -  °F | °C
As of 1:53 AM on Friday 19 Dec 2014 (Local Time) from KDUJ Reporting Station
Haze Haze  
Wind Chill: 16°   Ceiling: 400
Heat Index: 26°   Visibility: 5mi
Dew Point: 25°   Wind: 10mph
Humidity: 96%   Direction: 260°W
Pressure: 30.03"   Gusts: NA
Location:  41.16°N, 79.08°W
Report Text: KDUJ 190653Z AUTO 26009KT 5SM BR OVC004 M03/M04 A3003 RMK AO2 SLP192 I1001 T10331039
Loading
Personal Weather Stations






























Interactive Weather Map New forecast layout! Learn more

10-Day Weather Forecast

Advertisements
Track Severe Weather on mobile